createdAt,value
2022-08-16T00:01:05.729Z,55.6
2022-08-16T00:08:39.824Z,55.5
2022-08-16T00:17:05.987Z,55.9
2022-08-16T00:23:54.442Z,55.8
2022-08-16T00:31:27.370Z,55.8
2022-08-16T00:39:09.663Z,56.3
2022-08-16T00:46:52.891Z,56.3
2022-08-16T00:54:30.251Z,56.3
2022-08-16T01:02:30.965Z,56.2
2022-08-16T01:09:47.624Z,56.3
2022-08-16T01:17:24.130Z,56.1
2022-08-16T01:24:56.688Z,55.8
2022-08-16T01:32:33.319Z,56.0
2022-08-16T01:40:07.252Z,56.0
2022-08-16T01:47:49.434Z,55.8
2022-08-16T01:55:22.145Z,56.0
2022-08-16T02:02:54.460Z,55.8
2022-08-16T02:10:26.790Z,55.8
2022-08-16T02:17:59.113Z,56.0
2022-08-16T02:25:50.715Z,55.7
2022-08-16T02:33:15.977Z,56.0
2022-08-16T02:40:48.292Z,55.8
2022-08-16T02:48:29.158Z,55.8
2022-08-16T02:56:03.048Z,55.8
2022-08-16T03:04:40.838Z,55.8
2022-08-16T03:11:21.653Z,56.1
2022-08-16T03:18:54.323Z,55.5
2022-08-16T03:26:26.652Z,55.7
2022-08-16T03:33:59.002Z,55.8
2022-08-16T03:41:49.741Z,55.5
2022-08-16T03:49:13.622Z,55.7
2022-08-16T03:56:57.387Z,55.8
2022-08-16T04:04:32.479Z,56.4
2022-08-16T04:12:11.314Z,55.9
2022-08-16T04:19:48.251Z,55.9
2022-08-16T04:22:27.589Z,55.8
2022-08-16T04:23:15.229Z,55.7
2022-08-16T04:24:03.156Z,55.7
2022-08-16T04:24:54.295Z,55.9
2022-08-16T04:25:42.717Z,55.9
2022-08-16T04:26:34.417Z,55.8
2022-08-16T04:27:24.555Z,56.0
2022-08-16T04:28:29.166Z,56.1
2022-08-16T04:29:15.215Z,56.3
2022-08-16T04:30:07.221Z,56.7
2022-08-16T04:30:58.430Z,56.9
2022-08-16T04:31:45.837Z,57.2
2022-08-16T04:32:33.165Z,57.2
2022-08-16T04:33:27.058Z,57.2
2022-08-16T04:34:14.837Z,57.3
2022-08-16T04:35:08.451Z,57.2
2022-08-16T04:35:59.843Z,57.2
2022-08-16T04:36:48.814Z,57.4
2022-08-16T04:37:42.380Z,57.2
2022-08-16T04:38:30.600Z,57.0
2022-08-16T04:39:18.069Z,56.8
2022-08-16T04:40:11.042Z,56.5
2022-08-16T04:41:08.326Z,56.3
2022-08-16T04:41:57.065Z,56.0
2022-08-16T04:42:44.601Z,55.8
2022-08-16T04:43:31.913Z,55.7
2022-08-16T04:44:19.233Z,55.5
2022-08-16T04:45:17.837Z,55.4
2022-08-16T04:46:05.275Z,55.3
2022-08-16T04:47:21.861Z,55.1
2022-08-16T04:48:00.025Z,55.0
2022-08-16T04:48:47.365Z,55.0
2022-08-16T04:49:43.945Z,54.8
2022-08-16T04:50:33.573Z,54.7
2022-08-16T04:51:20.991Z,54.5
2022-08-16T04:52:33.232Z,54.5
2022-08-16T04:53:05.596Z,54.1
2022-08-16T04:53:54.216Z,53.9
2022-08-16T04:54:43.178Z,53.6
2022-08-16T04:55:37.795Z,53.5
2022-08-16T04:56:25.844Z,53.4
2022-08-16T04:57:13.422Z,53.1
2022-08-16T04:58:00.741Z,53.1
2022-08-16T04:58:48.074Z,53.0
2022-08-16T04:59:35.486Z,52.9
2022-08-16T05:00:31.899Z,53.0
2022-08-16T05:01:20.146Z,53.0
2022-08-16T05:02:42.044Z,53.1
2022-08-16T05:03:07.596Z,53.0
2022-08-16T05:03:59.872Z,53.1
2022-08-16T05:04:48.849Z,53.1
2022-08-16T05:05:40.237Z,53.3
2022-08-16T05:06:45.618Z,53.2
2022-08-16T05:07:30.158Z,53.1
2022-08-16T05:08:29.825Z,53.6
2022-08-16T05:09:16.361Z,53.1
2022-08-16T05:10:03.866Z,53.1
2022-08-16T05:11:03.393Z,53.3
2022-08-16T05:11:51.065Z,53.1
2022-08-16T05:12:38.394Z,53.0
2022-08-16T05:13:40.043Z,53.3
2022-08-16T05:14:45.206Z,53.1
2022-08-16T05:15:26.589Z,52.7
2022-08-16T05:16:20.357Z,52.4
2022-08-16T05:17:10.510Z,52.2
2022-08-16T05:17:59.785Z,51.9
2022-08-16T05:18:51.079Z,52.1
2022-08-16T05:19:38.992Z,52.2
2022-08-16T05:20:39.515Z,51.9
2022-08-16T05:21:35.669Z,52.1
2022-08-16T05:22:28.379Z,52.1
2022-08-16T05:23:15.954Z,52.3
2022-08-16T05:24:03.352Z,51.7
2022-08-16T05:24:55.111Z,51.6
2022-08-16T05:25:48.339Z,51.5
2022-08-16T05:26:36.278Z,51.4
2022-08-16T05:27:23.718Z,51.3
2022-08-16T05:28:11.021Z,51.4
2022-08-16T05:28:59.306Z,51.8
2022-08-16T05:30:01.098Z,51.7
2022-08-16T05:30:44.613Z,51.9
2022-08-16T05:31:31.940Z,51.9
2022-08-16T05:32:33.005Z,51.8
2022-08-16T05:33:18.095Z,51.7
2022-08-16T05:34:05.795Z,51.6
2022-08-16T05:35:03.092Z,51.4
2022-08-16T05:35:54.867Z,51.1
2022-08-16T05:36:44.072Z,50.9
2022-08-16T05:37:39.762Z,50.8
2022-08-16T05:38:32.601Z,50.8
2022-08-16T05:39:24.707Z,50.9
2022-08-16T05:40:13.165Z,50.9
2022-08-16T05:41:00.743Z,50.7
2022-08-16T05:41:51.925Z,50.9
2022-08-16T05:42:39.421Z,51.0
2022-08-16T05:43:43.255Z,51.2
2022-08-16T05:44:30.785Z,51.3
2022-08-16T05:45:22.200Z,51.0
2022-08-16T05:46:28.866Z,51.0
2022-08-16T05:47:07.945Z,51.0
2022-08-16T05:47:59.683Z,51.0
2022-08-16T05:48:54.864Z,51.1
2022-08-16T05:49:43.660Z,51.5
2022-08-16T05:50:34.102Z,52.0
2022-08-16T05:51:35.230Z,52.5
2022-08-16T05:52:20.688Z,53.0
2022-08-16T05:53:08.264Z,53.5
2022-08-16T05:53:57.482Z,53.7
2022-08-16T05:54:47.519Z,53.9
2022-08-16T05:55:40.898Z,54.3
2022-08-16T05:56:28.332Z,54.3
2022-08-16T05:57:15.667Z,54.8
2022-08-16T05:58:02.984Z,54.9
2022-08-16T05:58:50.326Z,55.0
2022-08-16T05:59:38.365Z,55.3
2022-08-16T06:00:25.751Z,55.5
2022-08-16T06:01:13.114Z,55.7
2022-08-16T06:02:01.500Z,55.6
2022-08-16T06:02:49.035Z,55.6
2022-08-16T06:03:37.546Z,55.5
2022-08-16T06:04:36.443Z,55.4
2022-08-16T06:05:22.260Z,55.1
2022-08-16T06:06:09.656Z,55.0
2022-08-16T06:06:57.635Z,55.1
2022-08-16T06:07:45.339Z,54.9
2022-08-16T06:08:46.378Z,54.7
2022-08-16T06:09:44.445Z,54.5
2022-08-16T06:10:32.492Z,54.3
2022-08-16T06:11:20.427Z,54.1
2022-08-16T06:12:27.261Z,54.1
2022-08-16T06:13:10.208Z,54.0
2022-08-16T06:13:57.626Z,53.6
2022-08-16T06:14:45.921Z,53.4
2022-08-16T06:15:33.251Z,53.2
2022-08-16T06:16:23.436Z,53.1
2022-08-16T06:17:15.301Z,53.0
2022-08-16T06:18:02.658Z,52.9
2022-08-16T06:18:50.565Z,53.0
2022-08-16T06:19:41.547Z,53.1
2022-08-16T06:20:35.116Z,53.2
2022-08-16T06:21:23.990Z,53.3
2022-08-16T06:22:11.448Z,53.0
2022-08-16T06:23:16.794Z,53.1
2022-08-16T06:24:54.777Z,53.1
2022-08-16T06:25:02.490Z,53.0
2022-08-16T06:25:53.199Z,52.9
2022-08-16T06:26:44.584Z,52.9
2022-08-16T06:27:40.749Z,52.8
2022-08-16T06:28:35.024Z,52.5
2022-08-16T06:29:24.074Z,52.4
2022-08-16T06:30:11.800Z,52.4
2022-08-16T06:31:06.989Z,52.3
2022-08-16T06:31:59.444Z,52.3
2022-08-16T06:32:48.435Z,52.3
2022-08-16T06:33:42.063Z,52.2
2022-08-16T06:34:56.128Z,52.1
2022-08-16T06:35:27.030Z,52.1
2022-08-16T06:36:24.359Z,52.2
2022-08-16T06:37:14.182Z,52.4
2022-08-16T06:38:01.512Z,52.3
2022-08-16T06:38:55.306Z,52.2
2022-08-16T06:39:49.456Z,52.1
2022-08-16T06:40:37.616Z,51.9
2022-08-16T06:41:27.470Z,51.8
2022-08-16T06:42:15.096Z,51.7
2022-08-16T06:43:05.885Z,51.5
2022-08-16T06:43:55.918Z,51.5
2022-08-16T06:44:43.480Z,51.5
2022-08-16T06:45:30.798Z,51.6
2022-08-16T06:46:18.119Z,51.9
2022-08-16T06:47:05.794Z,52.0
2022-08-16T06:47:56.572Z,51.9
2022-08-16T06:48:46.246Z,51.9
2022-08-16T06:49:38.444Z,52.0
2022-08-16T06:50:29.256Z,52.3
2022-08-16T06:51:17.449Z,52.5
2022-08-16T06:52:04.789Z,52.6
2022-08-16T06:53:08.364Z,52.6
2022-08-16T06:53:56.508Z,52.7
2022-08-16T06:54:49.780Z,52.6
2022-08-16T06:55:38.134Z,53.0
2022-08-16T06:56:25.850Z,53.1
2022-08-16T06:57:16.662Z,52.9
2022-08-16T06:58:08.738Z,52.9
2022-08-16T06:59:01.569Z,52.8
2022-08-16T06:59:52.997Z,52.7
2022-08-16T07:00:45.957Z,52.6
2022-08-16T07:01:43.211Z,52.7
2022-08-16T07:02:33.078Z,52.6
2022-08-16T07:03:27.483Z,52.4
2022-08-16T07:04:33.199Z,52.4
2022-08-16T07:05:15.285Z,52.7
2022-08-16T07:06:02.977Z,52.7
2022-08-16T07:06:51.524Z,52.3
2022-08-16T07:07:38.882Z,52.3
2022-08-16T07:08:27.369Z,52.5
2022-08-16T07:09:15.975Z,52.3
2022-08-16T07:10:08.734Z,52.3
2022-08-16T07:10:56.880Z,52.2
2022-08-16T07:11:51.514Z,52.1
2022-08-16T07:12:47.440Z,52.2
2022-08-16T07:14:00.790Z,52.3
2022-08-16T07:14:35.185Z,52.0
2022-08-16T07:15:22.750Z,52.0
2022-08-16T07:16:12.650Z,51.8
2022-08-16T07:17:02.901Z,52.1
2022-08-16T07:17:50.236Z,51.7
2022-08-16T07:18:37.577Z,51.5
2022-08-16T07:20:29.801Z,51.4
2022-08-16T07:20:47.016Z,51.6
2022-08-16T07:21:45.879Z,51.6
2022-08-16T07:22:37.874Z,51.5
2022-08-16T07:23:37.334Z,51.4
2022-08-16T07:24:30.375Z,51.4
2022-08-16T07:25:18.278Z,51.2
2022-08-16T07:26:05.676Z,51.4
2022-08-16T07:26:53.415Z,51.1
2022-08-16T07:27:41.938Z,50.9
2022-08-16T07:28:30.045Z,51.1
2022-08-16T07:29:17.489Z,51.0
2022-08-16T07:30:04.797Z,51.0
2022-08-16T07:31:02.241Z,51.0
2022-08-16T07:31:49.945Z,50.9
2022-08-16T07:32:41.109Z,51.4
2022-08-16T07:33:48.137Z,51.4
2022-08-16T07:34:37.680Z,51.3
2022-08-16T07:35:32.994Z,51.1
2022-08-16T07:36:22.396Z,50.8
2022-08-16T07:37:09.984Z,50.9
2022-08-16T07:37:57.324Z,50.8
2022-08-16T07:38:46.273Z,50.9
2022-08-16T07:39:34.319Z,50.9
2022-08-16T07:40:36.949Z,50.7
2022-08-16T07:41:19.185Z,50.8
2022-08-16T07:42:06.947Z,50.9
2022-08-16T07:42:54.603Z,51.0
2022-08-16T07:43:43.318Z,50.8
2022-08-16T07:44:48.876Z,50.8
2022-08-16T07:45:28.110Z,50.7
2022-08-16T07:46:38.947Z,50.7
2022-08-16T07:47:18.309Z,50.8
2022-08-16T07:48:11.953Z,50.7
2022-08-16T07:49:02.235Z,50.8
2022-08-16T07:49:53.031Z,51.1
2022-08-16T07:50:55.713Z,51.1
2022-08-16T07:51:42.455Z,51.0
2022-08-16T07:52:30.168Z,51.0
2022-08-16T07:53:17.609Z,51.2
2022-08-16T07:54:10.052Z,51.2
2022-08-16T07:54:57.915Z,51.0
2022-08-16T07:55:45.611Z,50.9
2022-08-16T07:56:37.327Z,50.9
2022-08-16T07:57:24.841Z,51.0
2022-08-16T07:58:18.451Z,51.1
2022-08-16T07:59:09.517Z,51.0
2022-08-16T07:59:57.194Z,51.2
2022-08-16T08:00:44.977Z,51.9
2022-08-16T08:01:33.539Z,52.0
2022-08-16T08:02:21.658Z,52.1
2022-08-16T08:03:15.039Z,52.2
2022-08-16T08:04:02.609Z,52.8
2022-08-16T08:04:50.783Z,52.7
2022-08-16T08:05:38.143Z,52.5
2022-08-16T08:06:26.069Z,52.5
2022-08-16T08:07:14.153Z,52.9
2022-08-16T08:08:11.627Z,52.8
2022-08-16T08:09:01.101Z,52.8
2022-08-16T08:09:48.445Z,52.6
2022-08-16T08:10:37.503Z,52.4
2022-08-16T08:11:27.992Z,52.2
2022-08-16T08:12:32.628Z,52.0
2022-08-16T08:13:13.105Z,52.1
2022-08-16T08:14:03.119Z,51.9
2022-08-16T08:14:50.769Z,51.8
2022-08-16T08:15:38.775Z,51.5
2022-08-16T08:16:36.133Z,51.5
2022-08-16T08:17:23.532Z,51.4
2022-08-16T08:18:30.025Z,51.2
2022-08-16T08:19:08.229Z,51.1
2022-08-16T08:19:57.398Z,50.8
2022-08-16T08:20:46.468Z,51.1
2022-08-16T08:21:59.979Z,51.1
2022-08-16T08:22:41.259Z,50.9
2022-08-16T08:23:28.779Z,50.9
2022-08-16T08:24:16.109Z,51.0
2022-08-16T08:25:04.307Z,51.1
2022-08-16T08:25:54.350Z,51.3
2022-08-16T08:26:43.198Z,51.2
2022-08-16T08:27:32.703Z,51.4
2022-08-16T08:28:20.317Z,51.4
2022-08-16T08:29:08.522Z,51.2
2022-08-16T08:30:49.479Z,51.3
2022-08-16T08:31:01.579Z,51.4
2022-08-16T08:31:51.465Z,51.2
2022-08-16T08:32:59.405Z,51.3
2022-08-16T08:33:36.563Z,51.2
2022-08-16T08:34:23.932Z,51.3
2022-08-16T08:35:11.322Z,51.2
2022-08-16T08:36:00.692Z,51.1
2022-08-16T08:36:48.526Z,51.2
2022-08-16T08:37:55.191Z,50.9
2022-08-16T08:38:45.218Z,51.1
2022-08-16T08:39:30.744Z,51.0
2022-08-16T08:40:24.560Z,51.2
2022-08-16T08:41:14.306Z,51.3
2022-08-16T08:42:01.692Z,51.5
2022-08-16T08:42:51.219Z,51.8
2022-08-16T08:43:45.386Z,51.8
2022-08-16T08:44:33.319Z,51.8
2022-08-16T08:45:47.172Z,51.8
2022-08-16T08:46:21.161Z,51.5
2022-08-16T08:47:11.597Z,51.5
2022-08-16T08:48:00.204Z,51.7
2022-08-16T08:49:00.084Z,51.5
2022-08-16T08:49:50.187Z,51.4
2022-08-16T08:50:42.766Z,51.3
2022-08-16T08:51:37.682Z,51.3
2022-08-16T08:52:35.219Z,51.4
2022-08-16T08:53:22.373Z,51.4
2022-08-16T08:54:20.595Z,51.4
2022-08-16T08:55:10.549Z,51.5
2022-08-16T08:56:00.321Z,51.5
2022-08-16T08:56:47.637Z,51.3
2022-08-16T08:57:35.152Z,51.1
2022-08-16T08:58:22.528Z,51.0
2022-08-16T08:59:13.268Z,51.0
2022-08-16T09:00:13.011Z,51.2
2022-08-16T09:01:01.668Z,51.3
2022-08-16T09:01:57.134Z,51.6
2022-08-16T09:02:51.774Z,51.7
2022-08-16T09:03:39.648Z,51.8
2022-08-16T09:04:28.268Z,51.6
2022-08-16T09:05:16.469Z,51.4
2022-08-16T09:06:04.045Z,52.1
2022-08-16T09:06:51.642Z,51.4
2022-08-16T09:08:00.869Z,51.3
2022-08-16T09:08:36.374Z,51.4
2022-08-16T09:09:23.755Z,51.2
2022-08-16T09:10:20.691Z,51.0
2022-08-16T09:11:08.438Z,51.1
2022-08-16T09:12:06.526Z,51.0
2022-08-16T09:12:54.420Z,51.3
2022-08-16T09:13:47.368Z,51.2
2022-08-16T09:14:35.873Z,51.2
2022-08-16T09:15:23.874Z,51.1
2022-08-16T09:16:11.447Z,51.1
2022-08-16T09:17:11.816Z,51.4
2022-08-16T09:18:24.468Z,51.2
2022-08-16T09:19:03.900Z,51.2
2022-08-16T09:19:55.757Z,51.5
2022-08-16T09:20:58.949Z,52.2
2022-08-16T09:21:41.890Z,51.9
2022-08-16T09:22:29.799Z,51.8
2022-08-16T09:23:18.446Z,51.9
2022-08-16T09:24:09.987Z,51.6
2022-08-16T09:25:11.223Z,51.5
2022-08-16T09:25:56.060Z,51.4
2022-08-16T09:26:45.537Z,51.2
2022-08-16T09:27:46.793Z,51.1
2022-08-16T09:29:13.986Z,51.0
2022-08-16T09:29:44.333Z,51.2
2022-08-16T09:30:34.535Z,51.5
2022-08-16T09:31:23.433Z,51.3
2022-08-16T09:32:11.086Z,51.1
2022-08-16T09:32:58.859Z,51.2
2022-08-16T09:33:51.808Z,51.2
2022-08-16T09:34:39.614Z,51.1
2022-08-16T09:35:27.017Z,51.0
2022-08-16T09:36:31.639Z,51.1
2022-08-16T09:37:18.000Z,51.4
2022-08-16T09:38:08.707Z,51.6
2022-08-16T09:38:59.970Z,51.5
2022-08-16T09:39:50.327Z,51.7
2022-08-16T09:40:42.615Z,51.6
2022-08-16T09:41:31.073Z,51.6
2022-08-16T09:42:18.918Z,51.5
2022-08-16T09:43:06.699Z,51.5
2022-08-16T09:43:59.904Z,51.5
2022-08-16T09:45:09.746Z,51.4
2022-08-16T09:45:45.846Z,51.4
2022-08-16T09:46:48.632Z,51.3
2022-08-16T09:47:57.120Z,51.2
2022-08-16T09:48:43.891Z,51.2
2022-08-16T09:49:25.475Z,51.0
2022-08-16T09:50:23.272Z,51.2
2022-08-16T09:51:12.538Z,51.3
2022-08-16T09:51:59.881Z,51.3
2022-08-16T09:52:47.909Z,51.4
2022-08-16T09:53:35.539Z,51.3
2022-08-16T09:54:23.823Z,51.2
2022-08-16T09:55:11.235Z,51.4
2022-08-16T09:55:58.714Z,51.6
2022-08-16T09:56:52.234Z,51.9
2022-08-16T09:57:40.409Z,52.0
2022-08-16T09:59:03.212Z,52.1
2022-08-16T09:59:38.517Z,51.9
2022-08-16T10:00:42.379Z,52.2
2022-08-16T10:01:26.694Z,51.9
2022-08-16T10:02:25.946Z,51.6
2022-08-16T10:03:12.142Z,51.6
2022-08-16T10:04:02.666Z,51.3
2022-08-16T10:04:54.540Z,51.4
2022-08-16T10:05:42.639Z,51.6
2022-08-16T10:06:33.507Z,51.5
2022-08-16T10:07:21.453Z,51.5
2022-08-16T10:08:25.448Z,51.3
2022-08-16T10:09:10.446Z,51.2
2022-08-16T10:09:58.626Z,51.4
2022-08-16T10:10:46.137Z,51.1
2022-08-16T10:11:50.006Z,51.3
2022-08-16T10:12:31.682Z,51.3
2022-08-16T10:13:20.630Z,51.3
2022-08-16T10:14:08.640Z,51.7
2022-08-16T10:15:03.470Z,51.9
2022-08-16T10:15:55.658Z,51.4
2022-08-16T10:16:43.369Z,51.8
2022-08-16T10:17:36.421Z,51.1
2022-08-16T10:19:00.174Z,51.1
2022-08-16T10:19:21.143Z,51.0
2022-08-16T10:20:08.805Z,51.0
2022-08-16T10:20:57.401Z,50.8
2022-08-16T10:21:44.770Z,50.8
2022-08-16T10:22:42.106Z,50.8
2022-08-16T10:23:29.499Z,50.7
2022-08-16T10:24:28.572Z,50.9
2022-08-16T10:27:16.382Z,50.5
2022-08-16T10:27:17.132Z,50.6
2022-08-16T10:27:21.691Z,50.5
2022-08-16T10:28:27.929Z,50.5
2022-08-16T10:29:04.873Z,50.7
2022-08-16T10:30:00.575Z,50.6
2022-08-16T10:30:48.934Z,50.9
2022-08-16T10:31:52.281Z,51.1
2022-08-16T10:32:41.289Z,51.2
2022-08-16T10:33:29.559Z,51.3
2022-08-16T10:34:31.130Z,51.1
2022-08-16T10:35:14.507Z,50.8
2022-08-16T10:36:06.110Z,50.7
2022-08-16T10:36:55.085Z,50.7
2022-08-16T10:37:42.480Z,50.6
2022-08-16T10:38:29.801Z,50.6
2022-08-16T10:39:20.610Z,50.5
2022-08-16T10:40:28.693Z,50.5
2022-08-16T10:41:07.030Z,50.3
2022-08-16T10:41:54.711Z,50.4
2022-08-16T10:42:42.278Z,50.3
2022-08-16T10:43:31.181Z,50.3
2022-08-16T10:44:18.734Z,50.3
2022-08-16T10:45:06.182Z,50.2
2022-08-16T10:45:59.723Z,50.3
2022-08-16T10:46:48.431Z,50.3
2022-08-16T10:47:38.214Z,50.3
2022-08-16T10:48:27.935Z,50.5
2022-08-16T10:49:16.773Z,50.5
2022-08-16T10:50:05.690Z,50.9
2022-08-16T10:51:03.063Z,51.1
2022-08-16T10:52:01.292Z,51.0
2022-08-16T10:52:51.860Z,50.9
2022-08-16T10:53:46.228Z,50.8
2022-08-16T10:54:33.892Z,50.8
2022-08-16T10:55:40.937Z,50.6
2022-08-16T10:56:55.763Z,50.7
2022-08-16T10:57:25.648Z,50.9
2022-08-16T10:58:20.422Z,50.9
2022-08-16T10:59:45.746Z,50.8
2022-08-16T11:00:20.877Z,50.8
2022-08-16T11:02:59.322Z,50.5
2022-08-16T11:03:04.688Z,50.6
2022-08-16T11:03:54.316Z,50.6
2022-08-16T11:06:39.335Z,50.5
2022-08-16T11:07:43.591Z,50.6
2022-08-16T11:08:35.237Z,50.7
2022-08-16T11:09:25.844Z,50.5
2022-08-16T11:10:20.194Z,50.5
2022-08-16T11:11:12.807Z,50.5
2022-08-16T11:12:13.493Z,50.4
2022-08-16T11:14:10.994Z,50.4
2022-08-16T11:15:13.575Z,50.4
2022-08-16T11:15:55.714Z,50.4
2022-08-16T11:17:45.028Z,50.4
2022-08-16T11:18:48.229Z,50.4
2022-08-16T11:20:00.084Z,50.3
2022-08-16T11:20:42.129Z,50.1
2022-08-16T11:21:29.999Z,50.4
2022-08-16T11:22:38.561Z,50.5
2022-08-16T11:23:14.741Z,50.4
2022-08-16T11:24:04.180Z,50.5
2022-08-16T11:26:06.002Z,50.4
2022-08-16T11:26:16.266Z,50.5
2022-08-16T11:27:53.518Z,50.2
2022-08-16T11:29:39.158Z,50.1
2022-08-16T11:30:37.711Z,50.0
2022-08-16T11:31:24.784Z,49.9
2022-08-16T11:32:12.203Z,50.0
2022-08-16T11:33:07.344Z,50.1
2022-08-16T11:33:54.998Z,50.1
2022-08-16T11:35:05.812Z,50.3
2022-08-16T11:35:43.762Z,50.4
2022-08-16T11:36:31.508Z,50.3
2022-08-16T11:37:27.302Z,50.3
2022-08-16T11:38:47.577Z,50.3
2022-08-16T11:39:13.689Z,50.1
2022-08-16T11:40:01.435Z,50.2
2022-08-16T11:40:52.265Z,50.1
2022-08-16T11:41:43.467Z,50.0
2022-08-16T11:42:34.368Z,50.1
2022-08-16T11:43:26.545Z,50.0
2022-08-16T11:44:20.222Z,49.9
2022-08-16T11:45:07.996Z,50.1
2022-08-16T11:45:56.671Z,50.0
2022-08-16T11:46:46.826Z,50.0
2022-08-16T11:47:34.301Z,49.8
2022-08-16T11:48:21.694Z,49.8
2022-08-16T11:49:13.397Z,49.6
2022-08-16T11:50:01.397Z,49.7
2022-08-16T11:50:48.804Z,49.5
2022-08-16T11:51:36.165Z,49.7
2022-08-16T11:52:23.513Z,49.7
2022-08-16T11:53:15.304Z,49.7
2022-08-16T11:54:05.148Z,49.6
2022-08-16T11:54:57.134Z,49.7
2022-08-16T11:55:47.559Z,49.6
2022-08-16T11:56:52.997Z,49.5
2022-08-16T11:57:39.533Z,49.6
2022-08-16T11:58:28.996Z,49.8
2022-08-16T11:59:16.911Z,50.0
2022-08-16T12:00:04.306Z,49.9
2022-08-16T12:00:54.852Z,49.8
2022-08-16T12:01:55.454Z,49.9
2022-08-16T12:02:39.618Z,50.0
2022-08-16T12:03:35.327Z,49.9
2022-08-16T12:04:23.246Z,49.9
2022-08-16T12:05:10.682Z,49.6
2022-08-16T12:05:58.316Z,49.5
2022-08-16T12:06:45.699Z,49.6
2022-08-16T12:07:37.423Z,49.6
2022-08-16T12:08:26.002Z,49.4
2022-08-16T12:09:14.618Z,49.4
2022-08-16T12:10:02.816Z,49.5
2022-08-16T12:10:50.860Z,49.6
2022-08-16T12:11:38.447Z,49.6
2022-08-16T12:12:28.414Z,49.4
2022-08-16T12:13:16.053Z,49.5
2022-08-16T12:14:04.484Z,49.4
2022-08-16T12:14:59.432Z,49.5
2022-08-16T12:15:47.864Z,49.5
2022-08-16T12:16:35.275Z,49.6
2022-08-16T12:17:22.686Z,49.7
2022-08-16T12:18:13.144Z,49.7
2022-08-16T12:19:10.405Z,49.6
2022-08-16T12:19:58.225Z,49.6
2022-08-16T12:20:45.805Z,49.7
2022-08-16T12:21:35.956Z,49.7
2022-08-16T12:22:30.538Z,49.7
2022-08-16T12:23:21.439Z,49.6
2022-08-16T12:24:09.031Z,49.6
2022-08-16T12:24:56.428Z,49.7
2022-08-16T12:25:43.856Z,49.8
2022-08-16T12:26:31.254Z,49.7
2022-08-16T12:27:18.798Z,49.7
2022-08-16T12:28:06.826Z,49.8
2022-08-16T12:28:56.372Z,49.9
2022-08-16T12:29:44.036Z,49.8
2022-08-16T12:30:36.246Z,49.7
2022-08-16T12:31:25.846Z,49.5
2022-08-16T12:32:36.081Z,49.7
2022-08-16T12:33:10.646Z,50.1
2022-08-16T12:33:58.712Z,49.5
2022-08-16T12:34:50.463Z,49.7
2022-08-16T12:35:40.338Z,49.5
2022-08-16T12:36:30.014Z,49.7
2022-08-16T12:37:17.724Z,49.6
2022-08-16T12:38:37.986Z,49.5
2022-08-16T12:39:02.411Z,49.5
2022-08-16T12:39:50.801Z,49.6
2022-08-16T12:40:38.907Z,49.7
2022-08-16T12:41:29.323Z,49.6
2022-08-16T12:42:22.258Z,49.6
2022-08-16T12:43:19.616Z,49.6
2022-08-16T12:44:11.069Z,49.6
2022-08-16T12:45:07.357Z,49.5
2022-08-16T12:45:55.475Z,49.5
2022-08-16T12:46:43.469Z,49.6
2022-08-16T12:47:30.809Z,49.6
2022-08-16T12:48:33.694Z,49.5
2022-08-16T12:49:17.071Z,49.4
2022-08-16T12:50:04.550Z,49.4
2022-08-16T12:50:52.566Z,49.4
2022-08-16T12:51:58.529Z,49.3
2022-08-16T12:52:44.467Z,49.4
2022-08-16T12:53:39.774Z,49.4
2022-08-16T12:54:27.603Z,49.5
2022-08-16T12:55:14.947Z,49.6
2022-08-16T12:56:02.561Z,49.7
2022-08-16T12:56:51.783Z,49.8
2022-08-16T12:57:39.226Z,49.7
2022-08-16T12:58:48.967Z,49.7
2022-08-16T12:59:24.535Z,49.6
2022-08-16T13:00:28.711Z,49.7
2022-08-16T13:01:15.823Z,49.5
2022-08-16T13:02:03.976Z,49.4
2022-08-16T13:02:53.421Z,49.5
2022-08-16T13:03:40.878Z,49.4
2022-08-16T13:04:28.303Z,49.5
2022-08-16T13:05:20.542Z,49.3
2022-08-16T13:06:09.327Z,49.3
2022-08-16T13:06:59.850Z,49.4
2022-08-16T13:07:51.836Z,49.6
2022-08-16T13:08:40.727Z,49.5
2022-08-16T13:09:28.958Z,49.4
2022-08-16T13:10:21.299Z,49.3
2022-08-16T13:11:13.842Z,49.4
2022-08-16T13:12:05.109Z,49.3
2022-08-16T13:12:52.558Z,49.3
2022-08-16T13:13:40.897Z,49.2
2022-08-16T13:14:31.199Z,49.3
2022-08-16T13:15:20.502Z,49.5
2022-08-16T13:16:20.221Z,49.7
2022-08-16T13:17:08.348Z,49.7
2022-08-16T13:17:56.474Z,49.8
2022-08-16T13:18:44.396Z,49.6
2022-08-16T13:20:06.209Z,49.7
2022-08-16T13:20:36.556Z,49.6
2022-08-16T13:21:24.919Z,49.5
2022-08-16T13:22:18.654Z,49.5
2022-08-16T13:23:07.162Z,49.5
2022-08-16T13:23:56.816Z,49.3
2022-08-16T13:24:45.905Z,49.4
2022-08-16T13:25:34.004Z,49.2
2022-08-16T13:26:21.419Z,49.3
2022-08-16T13:27:08.801Z,49.3
2022-08-16T13:28:01.427Z,49.2
2022-08-16T13:28:51.697Z,49.1
2022-08-16T13:29:40.173Z,49.1
2022-08-16T13:30:37.707Z,49.1
2022-08-16T13:31:28.891Z,49.1
2022-08-16T13:32:40.612Z,49.3
2022-08-16T13:33:16.953Z,49.2
2022-08-16T13:34:09.452Z,49.3
2022-08-16T13:34:56.985Z,49.2
2022-08-16T13:35:44.414Z,49.2
2022-08-16T13:36:48.487Z,49.1
2022-08-16T13:37:29.132Z,49.2
2022-08-16T13:38:24.462Z,49.1
2022-08-16T13:39:12.621Z,49.4
2022-08-16T13:40:00.122Z,49.4
2022-08-16T13:40:47.513Z,49.3
2022-08-16T13:41:34.921Z,49.3
2022-08-16T13:42:22.308Z,49.5
2022-08-16T13:43:11.405Z,49.5
2022-08-16T13:43:59.236Z,49.5
2022-08-16T13:44:48.784Z,49.4
2022-08-16T13:45:44.893Z,49.5
2022-08-16T13:46:32.530Z,49.6
2022-08-16T13:47:19.944Z,49.8
2022-08-16T13:48:07.333Z,50.0
2022-08-16T13:48:55.486Z,49.9
2022-08-16T13:49:43.316Z,49.7
2022-08-16T13:50:48.917Z,49.8
2022-08-16T13:51:29.259Z,49.7
2022-08-16T13:52:17.991Z,49.6
2022-08-16T13:53:05.355Z,49.4
2022-08-16T13:53:59.163Z,49.3
2022-08-16T13:54:47.679Z,49.4
2022-08-16T13:55:35.050Z,49.5
2022-08-16T13:56:25.144Z,49.4
2022-08-16T13:57:12.857Z,49.2
2022-08-16T13:58:34.777Z,49.0
2022-08-16T13:58:58.209Z,49.0
2022-08-16T13:59:50.202Z,48.9
2022-08-16T14:00:37.697Z,48.7
2022-08-16T14:01:25.222Z,48.8
2022-08-16T14:02:14.366Z,48.8
2022-08-16T14:03:02.575Z,48.6
2022-08-16T14:03:49.950Z,48.8
2022-08-16T14:04:41.888Z,48.9
2022-08-16T14:05:29.711Z,49.4
2022-08-16T14:06:18.826Z,48.5
2022-08-16T14:07:06.298Z,48.3
2022-08-16T14:07:53.625Z,48.3
2022-08-16T14:08:42.154Z,48.4
2022-08-16T14:09:30.022Z,48.7
2022-08-16T14:10:17.386Z,48.8
2022-08-16T14:11:04.725Z,48.9
2022-08-16T14:11:53.231Z,49.0
2022-08-16T14:12:41.072Z,49.0
2022-08-16T14:13:28.401Z,49.1
2022-08-16T14:14:16.539Z,49.2
2022-08-16T14:15:05.445Z,49.0
2022-08-16T14:15:52.876Z,48.8
2022-08-16T14:16:40.239Z,48.7
2022-08-16T14:17:29.280Z,48.7
2022-08-16T14:18:20.503Z,48.7
2022-08-16T14:19:08.318Z,49.0
2022-08-16T14:19:59.691Z,48.7
2022-08-16T14:20:48.415Z,48.7
2022-08-16T14:21:36.326Z,48.7
2022-08-16T14:22:30.532Z,48.6
2022-08-16T14:23:23.693Z,48.7
2022-08-16T14:24:22.255Z,48.5
2022-08-16T14:25:10.266Z,48.6
2022-08-16T14:25:57.681Z,48.6
2022-08-16T14:26:45.180Z,48.5
2022-08-16T14:27:32.517Z,49.1
2022-08-16T14:28:19.872Z,48.7
2022-08-16T14:29:11.139Z,48.6
2022-08-16T14:29:58.727Z,48.6
2022-08-16T14:30:46.312Z,48.6
2022-08-16T14:31:38.946Z,48.6
2022-08-16T14:32:33.871Z,48.6
2022-08-16T14:33:21.840Z,48.7
2022-08-16T14:34:11.182Z,48.6
2022-08-16T14:34:58.834Z,48.7
2022-08-16T14:35:50.492Z,48.6
2022-08-16T14:36:38.222Z,48.6
2022-08-16T14:37:29.656Z,48.6
2022-08-16T14:38:19.289Z,48.6
2022-08-16T14:39:11.631Z,48.6
2022-08-16T14:39:59.520Z,48.6
2022-08-16T14:40:51.076Z,48.7
2022-08-16T14:41:40.985Z,48.7
2022-08-16T14:42:28.534Z,48.7
2022-08-16T14:43:16.010Z,48.8
2022-08-16T14:44:03.351Z,48.9
2022-08-16T14:44:50.670Z,49.0
2022-08-16T14:45:38.005Z,49.2
2022-08-16T14:46:26.890Z,49.3
2022-08-16T14:47:14.510Z,49.3
2022-08-16T14:48:01.872Z,49.5
2022-08-16T14:48:49.232Z,49.5
2022-08-16T14:49:37.878Z,49.6
2022-08-16T14:50:28.044Z,49.6
2022-08-16T14:51:15.401Z,49.5
2022-08-16T14:52:02.804Z,49.5
2022-08-16T14:52:56.417Z,49.4
2022-08-16T14:53:45.103Z,49.3
2022-08-16T14:54:32.941Z,49.2
2022-08-16T14:55:20.256Z,49.0
2022-08-16T14:56:08.257Z,49.0
2022-08-16T14:57:04.945Z,48.9
2022-08-16T14:57:54.227Z,48.8
2022-08-16T14:58:42.036Z,48.7
2022-08-16T14:59:35.277Z,48.7
2022-08-16T15:00:34.597Z,48.6
2022-08-16T15:01:24.120Z,48.5
2022-08-16T15:09:06.397Z,48.5
2022-08-16T15:16:38.757Z,49.0
2022-08-16T15:24:22.332Z,49.5
2022-08-16T15:32:01.024Z,49.5
2022-08-16T15:39:39.358Z,48.7
2022-08-16T15:47:12.195Z,47.9
2022-08-16T15:54:53.372Z,47.9
2022-08-16T16:02:29.543Z,48.8
2022-08-16T16:10:03.868Z,48.5
2022-08-16T16:17:36.867Z,47.8
2022-08-16T16:25:09.198Z,47.8
2022-08-16T16:32:42.097Z,48.6
2022-08-16T16:40:16.809Z,48.6
2022-08-16T16:47:56.324Z,47.9
2022-08-16T16:55:39.053Z,47.3
2022-08-16T17:03:17.286Z,47.7
2022-08-16T17:10:49.945Z,48.7
2022-08-16T17:19:14.457Z,48.2
2022-08-16T17:26:05.067Z,47.6